sensor_id;sensor_type;location;lat;lon;timestamp;temperature;humidity
49549;DHT22;35450;44.518;7.466;2024-03-22T00:03:03;14.60;89.20
49549;DHT22;35450;44.518;7.466;2024-03-22T00:06:07;14.60;89.50
49549;DHT22;35450;44.518;7.466;2024-03-22T00:09:11;14.60;90.00
49549;DHT22;35450;44.518;7.466;2024-03-22T00:12:15;14.60;89.80
49549;DHT22;35450;44.518;7.466;2024-03-22T00:15:19;14.60;89.90
49549;DHT22;35450;44.518;7.466;2024-03-22T00:18:23;14.50;89.50
49549;DHT22;35450;44.518;7.466;2024-03-22T00:21:27;14.50;89.30
49549;DHT22;35450;44.518;7.466;2024-03-22T00:24:32;14.50;89.50
49549;DHT22;35450;44.518;7.466;2024-03-22T00:27:36;14.50;89.40
49549;DHT22;35450;44.518;7.466;2024-03-22T00:30:40;14.50;88.70
49549;DHT22;35450;44.518;7.466;2024-03-22T00:33:44;14.60;88.70
49549;DHT22;35450;44.518;7.466;2024-03-22T00:36:48;14.50;88.70
49549;DHT22;35450;44.518;7.466;2024-03-22T00:39:52;14.50;89.30
49549;DHT22;35450;44.518;7.466;2024-03-22T00:42:56;14.40;89.60
49549;DHT22;35450;44.518;7.466;2024-03-22T00:46:00;14.30;89.80
49549;DHT22;35450;44.518;7.466;2024-03-22T00:49:04;14.30;90.30
49549;DHT22;35450;44.518;7.466;2024-03-22T00:52:08;14.30;90.40
49549;DHT22;35450;44.518;7.466;2024-03-22T00:55:12;14.10;90.30
49549;DHT22;35450;44.518;7.466;2024-03-22T00:58:19;14.10;90.10
49549;DHT22;35450;44.518;7.466;2024-03-22T01:01:23;14.00;90.60
49549;DHT22;35450;44.518;7.466;2024-03-22T01:04:27;13.70;90.90
49549;DHT22;35450;44.518;7.466;2024-03-22T01:07:31;13.60;91.00
49549;DHT22;35450;44.518;7.466;2024-03-22T01:10:35;13.70;91.10
49549;DHT22;35450;44.518;7.466;2024-03-22T01:13:39;13.70;91.20
49549;DHT22;35450;44.518;7.466;2024-03-22T01:16:43;13.50;91.10
49549;DHT22;35450;44.518;7.466;2024-03-22T01:19:47;13.50;90.60
49549;DHT22;35450;44.518;7.466;2024-03-22T01:22:51;13.60;90.20
49549;DHT22;35450;44.518;7.466;2024-03-22T01:25:55;13.80;89.50
49549;DHT22;35450;44.518;7.466;2024-03-22T01:28:59;13.70;89.60
49549;DHT22;35450;44.518;7.466;2024-03-22T01:32:03;13.80;89.60
49549;DHT22;35450;44.518;7.466;2024-03-22T01:35:08;13.90;89.50
49549;DHT22;35450;44.518;7.466;2024-03-22T01:38:12;13.90;89.80
49549;DHT22;35450;44.518;7.466;2024-03-22T01:41:16;13.90;89.60
49549;DHT22;35450;44.518;7.466;2024-03-22T01:44:27;13.80;89.50
49549;DHT22;35450;44.518;7.466;2024-03-22T01:47:32;13.60;90.00
49549;DHT22;35450;44.518;7.466;2024-03-22T01:50:36;13.70;89.10
49549;DHT22;35450;44.518;7.466;2024-03-22T01:53:40;13.70;89.30
49549;DHT22;35450;44.518;7.466;2024-03-22T01:56:45;13.50;90.00
49549;DHT22;35450;44.518;7.466;2024-03-22T01:59:51;13.50;90.30
49549;DHT22;35450;44.518;7.466;2024-03-22T02:02:57;13.40;90.40
49549;DHT22;35450;44.518;7.466;2024-03-22T02:06:01;13.40;90.50
49549;DHT22;35450;44.518;7.466;2024-03-22T02:09:06;13.50;90.40
49549;DHT22;35450;44.518;7.466;2024-03-22T02:12:13;13.50;90.40
49549;DHT22;35450;44.518;7.466;2024-03-22T02:15:17;13.60;90.30
49549;DHT22;35450;44.518;7.466;2024-03-22T02:18:21;13.50;90.40
49549;DHT22;35450;44.518;7.466;2024-03-22T02:21:25;13.40;90.50
49549;DHT22;35450;44.518;7.466;2024-03-22T02:24:29;13.40;90.50
49549;DHT22;35450;44.518;7.466;2024-03-22T02:27:33;13.40;90.10
49549;DHT22;35450;44.518;7.466;2024-03-22T02:30:36;13.40;90.30
49549;DHT22;35450;44.518;7.466;2024-03-22T02:33:40;13.50;90.30
49549;DHT22;35450;44.518;7.466;2024-03-22T02:36:45;13.50;89.60
49549;DHT22;35450;44.518;7.466;2024-03-22T02:39:48;13.50;89.10
49549;DHT22;35450;44.518;7.466;2024-03-22T02:42:52;13.60;89.60
49549;DHT22;35450;44.518;7.466;2024-03-22T02:45:56;13.60;89.20
49549;DHT22;35450;44.518;7.466;2024-03-22T02:49:00;13.60;89.50
49549;DHT22;35450;44.518;7.466;2024-03-22T02:52:04;13.60;89.50
49549;DHT22;35450;44.518;7.466;2024-03-22T02:55:08;13.60;89.00
49549;DHT22;35450;44.518;7.466;2024-03-22T02:58:12;13.60;88.90
49549;DHT22;35450;44.518;7.466;2024-03-22T03:01:16;13.60;89.00
49549;DHT22;35450;44.518;7.466;2024-03-22T03:04:20;13.60;88.40
49549;DHT22;35450;44.518;7.466;2024-03-22T03:08:01;13.60;88.40
49549;DHT22;35450;44.518;7.466;2024-03-22T03:11:07;13.60;88.90
49549;DHT22;35450;44.518;7.466;2024-03-22T03:14:10;13.60;88.50
49549;DHT22;35450;44.518;7.466;2024-03-22T03:17:14;13.60;88.30
49549;DHT22;35450;44.518;7.466;2024-03-22T03:20:18;13.60;88.80
49549;DHT22;35450;44.518;7.466;2024-03-22T03:23:22;13.60;88.50
49549;DHT22;35450;44.518;7.466;2024-03-22T03:26:26;13.60;89.30
49549;DHT22;35450;44.518;7.466;2024-03-22T03:29:30;13.60;88.20
49549;DHT22;35450;44.518;7.466;2024-03-22T03:32:34;13.60;87.70
49549;DHT22;35450;44.518;7.466;2024-03-22T03:35:38;13.60;87.80
49549;DHT22;35450;44.518;7.466;2024-03-22T03:38:42;13.40;89.20
49549;DHT22;35450;44.518;7.466;2024-03-22T03:41:46;13.20;90.00
49549;DHT22;35450;44.518;7.466;2024-03-22T03:44:50;13.10;90.40
49549;DHT22;35450;44.518;7.466;2024-03-22T03:47:54;13.20;89.90
49549;DHT22;35450;44.518;7.466;2024-03-22T03:51:00;13.20;89.70
49549;DHT22;35450;44.518;7.466;2024-03-22T03:54:07;13.10;90.00
49549;DHT22;35450;44.518;7.466;2024-03-22T03:57:10;13.10;89.40
49549;DHT22;35450;44.518;7.466;2024-03-22T04:00:14;12.90;90.20
49549;DHT22;35450;44.518;7.466;2024-03-22T04:03:18;12.90;89.90
49549;DHT22;35450;44.518;7.466;2024-03-22T04:06:23;12.90;89.80
49549;DHT22;35450;44.518;7.466;2024-03-22T04:09:27;13.00;89.70
49549;DHT22;35450;44.518;7.466;2024-03-22T04:12:31;13.00;90.20
49549;DHT22;35450;44.518;7.466;2024-03-22T04:15:35;13.00;89.70
49549;DHT22;35450;44.518;7.466;2024-03-22T04:18:39;12.90;90.20
49549;DHT22;35450;44.518;7.466;2024-03-22T04:21:43;12.90;90.10
49549;DHT22;35450;44.518;7.466;2024-03-22T04:24:46;12.90;90.30
49549;DHT22;35450;44.518;7.466;2024-03-22T04:27:50;12.80;90.30
49549;DHT22;35450;44.518;7.466;2024-03-22T04:31:00;12.70;90.70
49549;DHT22;35450;44.518;7.466;2024-03-22T04:34:04;12.70;90.30
49549;DHT22;35450;44.518;7.466;2024-03-22T04:37:11;12.70;90.30
49549;DHT22;35450;44.518;7.466;2024-03-22T04:40:15;12.60;90.30
49549;DHT22;35450;44.518;7.466;2024-03-22T04:43:19;12.60;90.20
49549;DHT22;35450;44.518;7.466;2024-03-22T04:46:23;12.50;90.40
49549;DHT22;35450;44.518;7.466;2024-03-22T04:49:27;12.50;90.80
49549;DHT22;35450;44.518;7.466;2024-03-22T04:52:31;12.50;90.10
49549;DHT22;35450;44.518;7.466;2024-03-22T04:55:34;12.50;90.10
49549;DHT22;35450;44.518;7.466;2024-03-22T04:58:38;12.50;90.00
49549;DHT22;35450;44.518;7.466;2024-03-22T05:01:43;12.50;90.30
49549;DHT22;35450;44.518;7.466;2024-03-22T05:04:48;12.60;90.40
49549;DHT22;35450;44.518;7.466;2024-03-22T05:07:53;12.60;90.70
49549;DHT22;35450;44.518;7.466;2024-03-22T05:10:57;12.50;90.40
49549;DHT22;35450;44.518;7.466;2024-03-22T05:14:01;12.60;90.50
49549;DHT22;35450;44.518;7.466;2024-03-22T05:17:05;12.60;90.50
49549;DHT22;35450;44.518;7.466;2024-03-22T05:20:09;12.50;90.80
49549;DHT22;35450;44.518;7.466;2024-03-22T05:23:14;12.50;90.70
49549;DHT22;35450;44.518;7.466;2024-03-22T05:26:19;12.60;90.60
49549;DHT22;35450;44.518;7.466;2024-03-22T05:29:24;12.60;90.60
49549;DHT22;35450;44.518;7.466;2024-03-22T05:32:28;12.70;90.50
49549;DHT22;35450;44.518;7.466;2024-03-22T05:35:32;12.70;90.50
49549;DHT22;35450;44.518;7.466;2024-03-22T05:38:36;12.50;90.80
49549;DHT22;35450;44.518;7.466;2024-03-22T05:41:40;12.30;91.10
49549;DHT22;35450;44.518;7.466;2024-03-22T05:44:44;12.20;91.50
49549;DHT22;35450;44.518;7.466;2024-03-22T05:47:48;12.20;91.50
49549;DHT22;35450;44.518;7.466;2024-03-22T05:50:52;12.20;91.40
49549;DHT22;35450;44.518;7.466;2024-03-22T05:53:56;12.30;91.30
49549;DHT22;35450;44.518;7.466;2024-03-22T05:57:02;12.40;91.10
49549;DHT22;35450;44.518;7.466;2024-03-22T06:00:07;12.50;91.30
49549;DHT22;35450;44.518;7.466;2024-03-22T06:03:11;12.50;91.30
49549;DHT22;35450;44.518;7.466;2024-03-22T06:06:15;12.50;91.40
49549;DHT22;35450;44.518;7.466;2024-03-22T06:09:20;12.30;91.40
49549;DHT22;35450;44.518;7.466;2024-03-22T06:12:40;12.20;91.60
49549;DHT22;35450;44.518;7.466;2024-03-22T06:15:48;12.20;91.40
49549;DHT22;35450;44.518;7.466;2024-03-22T06:18:53;12.30;91.50
49549;DHT22;35450;44.518;7.466;2024-03-22T06:21:56;12.30;91.50
49549;DHT22;35450;44.518;7.466;2024-03-22T06:25:00;12.30;91.90
49549;DHT22;35450;44.518;7.466;2024-03-22T06:28:04;12.30;91.90
49549;DHT22;35450;44.518;7.466;2024-03-22T06:31:08;12.40;91.90
49549;DHT22;35450;44.518;7.466;2024-03-22T06:34:12;12.40;92.10
49549;DHT22;35450;44.518;7.466;2024-03-22T06:37:16;12.50;92.20
49549;DHT22;35450;44.518;7.466;2024-03-22T06:40:19;12.70;91.30
49549;DHT22;35450;44.518;7.466;2024-03-22T06:43:23;12.80;90.80
49549;DHT22;35450;44.518;7.466;2024-03-22T06:46:28;12.80;90.80
49549;DHT22;35450;44.518;7.466;2024-03-22T06:49:32;12.80;91.10
49549;DHT22;35450;44.518;7.466;2024-03-22T06:52:35;13.00;91.10
49549;DHT22;35450;44.518;7.466;2024-03-22T06:55:39;13.10;91.10
49549;DHT22;35450;44.518;7.466;2024-03-22T06:58:44;13.20;91.00
49549;DHT22;35450;44.518;7.466;2024-03-22T07:01:48;13.30;90.60
49549;DHT22;35450;44.518;7.466;2024-03-22T07:04:52;13.40;89.40
49549;DHT22;35450;44.518;7.466;2024-03-22T07:07:56;13.50;89.30
49549;DHT22;35450;44.518;7.466;2024-03-22T07:11:05;13.50;90.50
49549;DHT22;35450;44.518;7.466;2024-03-22T07:14:09;13.50;90.60
49549;DHT22;35450;44.518;7.466;2024-03-22T07:17:15;13.60;90.20
49549;DHT22;35450;44.518;7.466;2024-03-22T07:20:19;13.70;89.60
49549;DHT22;35450;44.518;7.466;2024-03-22T07:23:23;13.80;90.00
49549;DHT22;35450;44.518;7.466;2024-03-22T07:26:27;13.90;91.00
49549;DHT22;35450;44.518;7.466;2024-03-22T07:29:30;13.90;90.20
49549;DHT22;35450;44.518;7.466;2024-03-22T07:32:35;13.90;90.20
49549;DHT22;35450;44.518;7.466;2024-03-22T07:35:39;13.90;92.30
49549;DHT22;35450;44.518;7.466;2024-03-22T07:38:43;13.90;91.50
49549;DHT22;35450;44.518;7.466;2024-03-22T07:41:47;13.70;90.70
49549;DHT22;35450;44.518;7.466;2024-03-22T07:44:51;13.70;90.90
49549;DHT22;35450;44.518;7.466;2024-03-22T07:47:55;13.70;91.10
49549;DHT22;35450;44.518;7.466;2024-03-22T07:51:00;13.80;91.80
49549;DHT22;35450;44.518;7.466;2024-03-22T07:54:04;13.90;91.90
49549;DHT22;35450;44.518;7.466;2024-03-22T07:57:08;13.90;92.60
49549;DHT22;35450;44.518;7.466;2024-03-22T08:00:14;13.90;94.20
49549;DHT22;35450;44.518;7.466;2024-03-22T08:03:18;13.80;94.90
49549;DHT22;35450;44.518;7.466;2024-03-22T08:06:22;13.60;95.00
49549;DHT22;35450;44.518;7.466;2024-03-22T08:09:26;13.60;95.90
49549;DHT22;35450;44.518;7.466;2024-03-22T08:12:30;13.70;96.20
49549;DHT22;35450;44.518;7.466;2024-03-22T08:15:35;13.50;96.80
49549;DHT22;35450;44.518;7.466;2024-03-22T08:18:39;13.50;97.30
49549;DHT22;35450;44.518;7.466;2024-03-22T08:21:43;13.50;97.60
49549;DHT22;35450;44.518;7.466;2024-03-22T08:24:48;13.50;97.80
49549;DHT22;35450;44.518;7.466;2024-03-22T08:27:52;13.50;98.00
49549;DHT22;35450;44.518;7.466;2024-03-22T08:31:03;13.50;98.10
49549;DHT22;35450;44.518;7.466;2024-03-22T08:34:08;13.50;98.50
49549;DHT22;35450;44.518;7.466;2024-03-22T08:37:12;13.50;98.70
49549;DHT22;35450;44.518;7.466;2024-03-22T08:40:16;13.50;98.80
49549;DHT22;35450;44.518;7.466;2024-03-22T08:43:21;13.50;98.70
49549;DHT22;35450;44.518;7.466;2024-03-22T08:46:26;13.40;98.60
49549;DHT22;35450;44.518;7.466;2024-03-22T08:49:31;13.30;99.00
49549;DHT22;35450;44.518;7.466;2024-03-22T08:52:35;13.30;99.00
49549;DHT22;35450;44.518;7.466;2024-03-22T08:55:46;13.40;99.30
49549;DHT22;35450;44.518;7.466;2024-03-22T08:58:50;13.50;99.50
49549;DHT22;35450;44.518;7.466;2024-03-22T09:01:55;13.50;99.50
49549;DHT22;35450;44.518;7.466;2024-03-22T09:04:59;13.60;99.70
49549;DHT22;35450;44.518;7.466;2024-03-22T09:08:03;13.50;99.70
49549;DHT22;35450;44.518;7.466;2024-03-22T09:11:08;13.50;99.70
49549;DHT22;35450;44.518;7.466;2024-03-22T09:14:12;13.50;99.70
49549;DHT22;35450;44.518;7.466;2024-03-22T09:17:16;13.60;99.80
49549;DHT22;35450;44.518;7.466;2024-03-22T09:20:20;13.60;99.80
49549;DHT22;35450;44.518;7.466;2024-03-22T09:23:24;13.70;99.90
49549;DHT22;35450;44.518;7.466;2024-03-22T09:26:28;13.70;99.90
49549;DHT22;35450;44.518;7.466;2024-03-22T09:29:32;13.60;99.90
49549;DHT22;35450;44.518;7.466;2024-03-22T09:32:36;13.60;99.90
49549;DHT22;35450;44.518;7.466;2024-03-22T09:35:40;13.60;99.90
49549;DHT22;35450;44.518;7.466;2024-03-22T09:38:44;13.60;99.90
49549;DHT22;35450;44.518;7.466;2024-03-22T09:41:50;13.60;99.90
49549;DHT22;35450;44.518;7.466;2024-03-22T09:44:54;13.70;99.90
49549;DHT22;35450;44.518;7.466;2024-03-22T09:47:59;13.70;99.90
49549;DHT22;35450;44.518;7.466;2024-03-22T09:51:03;13.80;99.90
49549;DHT22;35450;44.518;7.466;2024-03-22T09:54:09;13.90;99.90
49549;DHT22;35450;44.518;7.466;2024-03-22T09:57:14;13.90;99.90
49549;DHT22;35450;44.518;7.466;2024-03-22T10:00:21;13.90;99.90
49549;DHT22;35450;44.518;7.466;2024-03-22T10:03:26;14.00;99.90
49549;DHT22;35450;44.518;7.466;2024-03-22T10:06:30;14.10;99.90
49549;DHT22;35450;44.518;7.466;2024-03-22T10:09:35;14.10;99.90
49549;DHT22;35450;44.518;7.466;2024-03-22T10:12:39;14.20;99.90
49549;DHT22;35450;44.518;7.466;2024-03-22T10:15:43;14.10;99.90
49549;DHT22;35450;44.518;7.466;2024-03-22T10:18:47;14.20;99.90
49549;DHT22;35450;44.518;7.466;2024-03-22T10:22:04;14.20;99.80
49549;DHT22;35450;44.518;7.466;2024-03-22T10:25:09;14.40;99.70
49549;DHT22;35450;44.518;7.466;2024-03-22T10:28:15;14.50;99.50
49549;DHT22;35450;44.518;7.466;2024-03-22T10:31:20;14.60;99.20
49549;DHT22;35450;44.518;7.466;2024-03-22T10:34:24;14.60;98.90
49549;DHT22;35450;44.518;7.466;2024-03-22T10:37:30;14.60;98.50
49549;DHT22;35450;44.518;7.466;2024-03-22T10:40:35;14.60;98.30
49549;DHT22;35450;44.518;7.466;2024-03-22T10:43:40;14.70;98.00
49549;DHT22;35450;44.518;7.466;2024-03-22T10:46:45;14.80;97.40
49549;DHT22;35450;44.518;7.466;2024-03-22T10:49:51;14.80;96.20
49549;DHT22;35450;44.518;7.466;2024-03-22T10:53:00;14.90;95.40
49549;DHT22;35450;44.518;7.466;2024-03-22T10:56:06;15.00;95.40
49549;DHT22;35450;44.518;7.466;2024-03-22T10:59:19;15.10;95.40
49549;DHT22;35450;44.518;7.466;2024-03-22T11:02:24;15.10;94.80
49549;DHT22;35450;44.518;7.466;2024-03-22T11:05:28;15.10;95.20
49549;DHT22;35450;44.518;7.466;2024-03-22T11:08:32;15.20;95.00
49549;DHT22;35450;44.518;7.466;2024-03-22T11:11:37;15.20;95.10
49549;DHT22;35450;44.518;7.466;2024-03-22T11:14:41;15.30;94.90
49549;DHT22;35450;44.518;7.466;2024-03-22T11:17:45;15.30;94.60
49549;DHT22;35450;44.518;7.466;2024-03-22T11:20:48;15.30;95.10
49549;DHT22;35450;44.518;7.466;2024-03-22T11:23:53;15.20;94.80
49549;DHT22;35450;44.518;7.466;2024-03-22T11:26:57;15.30;95.10
49549;DHT22;35450;44.518;7.466;2024-03-22T11:30:01;15.40;95.60
49549;DHT22;35450;44.518;7.466;2024-03-22T11:33:06;15.50;95.20
49549;DHT22;35450;44.518;7.466;2024-03-22T11:36:11;15.50;94.10
49549;DHT22;35450;44.518;7.466;2024-03-22T11:39:16;15.60;94.50
49549;DHT22;35450;44.518;7.466;2024-03-22T11:42:21;15.60;94.40
49549;DHT22;35450;44.518;7.466;2024-03-22T11:45:26;15.60;94.00
49549;DHT22;35450;44.518;7.466;2024-03-22T11:48:31;15.60;95.00
49549;DHT22;35450;44.518;7.466;2024-03-22T11:51:35;15.70;95.30
49549;DHT22;35450;44.518;7.466;2024-03-22T11:54:39;15.70;95.30
49549;DHT22;35450;44.518;7.466;2024-03-22T11:57:48;15.80;95.20
49549;DHT22;35450;44.518;7.466;2024-03-22T12:00:53;15.80;95.60
49549;DHT22;35450;44.518;7.466;2024-03-22T12:03:57;15.80;95.40
49549;DHT22;35450;44.518;7.466;2024-03-22T12:07:01;15.80;95.00
49549;DHT22;35450;44.518;7.466;2024-03-22T12:10:06;15.80;94.70
49549;DHT22;35450;44.518;7.466;2024-03-22T12:13:10;15.80;94.80
49549;DHT22;35450;44.518;7.466;2024-03-22T12:16:13;15.80;95.20
49549;DHT22;35450;44.518;7.466;2024-03-22T12:19:18;15.80;95.40
49549;DHT22;35450;44.518;7.466;2024-03-22T12:22:22;15.80;94.60
49549;DHT22;35450;44.518;7.466;2024-03-22T12:25:26;15.80;94.40
49549;DHT22;35450;44.518;7.466;2024-03-22T12:28:30;15.80;95.00
49549;DHT22;35450;44.518;7.466;2024-03-22T12:31:34;15.80;95.30
49549;DHT22;35450;44.518;7.466;2024-03-22T12:34:39;15.90;95.90
49549;DHT22;35450;44.518;7.466;2024-03-22T12:37:43;15.90;95.80
49549;DHT22;35450;44.518;7.466;2024-03-22T12:40:47;16.00;96.00
49549;DHT22;35450;44.518;7.466;2024-03-22T12:43:52;16.00;95.50
49549;DHT22;35450;44.518;7.466;2024-03-22T12:46:56;16.00;95.20
49549;DHT22;35450;44.518;7.466;2024-03-22T12:50:00;16.00;95.50
49549;DHT22;35450;44.518;7.466;2024-03-22T12:53:04;16.10;96.20
49549;DHT22;35450;44.518;7.466;2024-03-22T12:56:08;16.10;96.50
49549;DHT22;35450;44.518;7.466;2024-03-22T12:59:13;16.20;96.40
49549;DHT22;35450;44.518;7.466;2024-03-22T13:02:17;16.30;96.50
49549;DHT22;35450;44.518;7.466;2024-03-22T13:05:22;16.30;96.30
49549;DHT22;35450;44.518;7.466;2024-03-22T13:08:26;16.10;96.40
49549;DHT22;35450;44.518;7.466;2024-03-22T13:11:31;16.20;96.60
49549;DHT22;35450;44.518;7.466;2024-03-22T13:14:35;16.20;96.60
49549;DHT22;35450;44.518;7.466;2024-03-22T13:17:39;16.20;96.70
49549;DHT22;35450;44.518;7.466;2024-03-22T13:20:43;16.30;96.90
49549;DHT22;35450;44.518;7.466;2024-03-22T13:23:50;16.30;96.50
49549;DHT22;35450;44.518;7.466;2024-03-22T13:26:54;16.30;96.20
49549;DHT22;35450;44.518;7.466;2024-03-22T13:29:58;16.30;96.40
49549;DHT22;35450;44.518;7.466;2024-03-22T13:33:02;16.30;96.40
49549;DHT22;35450;44.518;7.466;2024-03-22T13:36:06;16.30;96.20
49549;DHT22;35450;44.518;7.466;2024-03-22T13:39:10;16.40;96.40
49549;DHT22;35450;44.518;7.466;2024-03-22T13:42:14;16.50;96.20
49549;DHT22;35450;44.518;7.466;2024-03-22T13:45:18;16.50;95.60
49549;DHT22;35450;44.518;7.466;2024-03-22T13:48:23;16.60;96.00
49549;DHT22;35450;44.518;7.466;2024-03-22T13:51:28;16.60;95.40
49549;DHT22;35450;44.518;7.466;2024-03-22T13:54:34;16.70;94.90
49549;DHT22;35450;44.518;7.466;2024-03-22T13:57:38;16.70;94.90
49549;DHT22;35450;44.518;7.466;2024-03-22T14:00:43;16.80;95.00
49549;DHT22;35450;44.518;7.466;2024-03-22T14:03:46;16.80;94.70
49549;DHT22;35450;44.518;7.466;2024-03-22T14:06:52;16.90;94.50
49549;DHT22;35450;44.518;7.466;2024-03-22T14:09:56;16.90;94.50
49549;DHT22;35450;44.518;7.466;2024-03-22T14:13:01;17.00;94.80
49549;DHT22;35450;44.518;7.466;2024-03-22T14:16:05;17.00;94.50
49549;DHT22;35450;44.518;7.466;2024-03-22T14:19:11;16.90;94.50
49549;DHT22;35450;44.518;7.466;2024-03-22T14:22:15;17.00;94.40
49549;DHT22;35450;44.518;7.466;2024-03-22T14:25:19;17.00;94.10
49549;DHT22;35450;44.518;7.466;2024-03-22T14:28:24;17.00;94.00
49549;DHT22;35450;44.518;7.466;2024-03-22T14:31:28;17.10;93.80
49549;DHT22;35450;44.518;7.466;2024-03-22T14:34:32;17.10;93.70
49549;DHT22;35450;44.518;7.466;2024-03-22T14:37:36;17.20;94.10
49549;DHT22;35450;44.518;7.466;2024-03-22T14:40:40;17.20;93.80
49549;DHT22;35450;44.518;7.466;2024-03-22T14:43:45;17.20;93.40
49549;DHT22;35450;44.518;7.466;2024-03-22T14:46:48;17.20;93.10
49549;DHT22;35450;44.518;7.466;2024-03-22T14:49:53;17.20;93.40
49549;DHT22;35450;44.518;7.466;2024-03-22T14:52:57;17.20;93.30
49549;DHT22;35450;44.518;7.466;2024-03-22T14:56:02;17.30;93.80
49549;DHT22;35450;44.518;7.466;2024-03-22T14:59:10;17.40;93.80
49549;DHT22;35450;44.518;7.466;2024-03-22T15:02:14;17.50;93.20
49549;DHT22;35450;44.518;7.466;2024-03-22T15:05:18;17.50;92.20
49549;DHT22;35450;44.518;7.466;2024-03-22T15:08:23;17.50;92.30
49549;DHT22;35450;44.518;7.466;2024-03-22T15:11:27;17.50;92.00
49549;DHT22;35450;44.518;7.466;2024-03-22T15:14:31;17.50;91.90
49549;DHT22;35450;44.518;7.466;2024-03-22T15:17:35;17.50;92.10
49549;DHT22;35450;44.518;7.466;2024-03-22T15:20:41;17.60;92.20
49549;DHT22;35450;44.518;7.466;2024-03-22T15:23:45;17.60;92.30
49549;DHT22;35450;44.518;7.466;2024-03-22T15:26:49;17.80;91.60
49549;DHT22;35450;44.518;7.466;2024-03-22T15:29:53;17.80;91.00
49549;DHT22;35450;44.518;7.466;2024-03-22T15:32:57;17.80;90.70
49549;DHT22;35450;44.518;7.466;2024-03-22T15:36:01;17.80;91.10
49549;DHT22;35450;44.518;7.466;2024-03-22T15:39:05;17.90;91.30
49549;DHT22;35450;44.518;7.466;2024-03-22T15:42:11;17.80;90.80
49549;DHT22;35450;44.518;7.466;2024-03-22T15:45:15;17.80;90.70
49549;DHT22;35450;44.518;7.466;2024-03-22T15:48:19;17.80;90.80
49549;DHT22;35450;44.518;7.466;2024-03-22T15:51:25;17.80;90.40
49549;DHT22;35450;44.518;7.466;2024-03-22T15:54:29;18.00;90.30
49549;DHT22;35450;44.518;7.466;2024-03-22T15:57:33;18.10;90.40
49549;DHT22;35450;44.518;7.466;2024-03-22T16:00:37;18.30;90.10
49549;DHT22;35450;44.518;7.466;2024-03-22T16:03:41;18.30;90.40
49549;DHT22;35450;44.518;7.466;2024-03-22T16:06:45;18.40;90.70
49549;DHT22;35450;44.518;7.466;2024-03-22T16:09:49;18.40;90.30
49549;DHT22;35450;44.518;7.466;2024-03-22T16:12:53;18.50;90.00
49549;DHT22;35450;44.518;7.466;2024-03-22T16:15:57;18.40;89.70
49549;DHT22;35450;44.518;7.466;2024-03-22T16:19:01;18.50;89.60
49549;DHT22;35450;44.518;7.466;2024-03-22T16:22:05;18.50;89.70
49549;DHT22;35450;44.518;7.466;2024-03-22T16:25:09;18.60;90.00
49549;DHT22;35450;44.518;7.466;2024-03-22T16:28:13;18.40;90.50
49549;DHT22;35450;44.518;7.466;2024-03-22T16:31:19;18.50;90.50
49549;DHT22;35450;44.518;7.466;2024-03-22T16:34:23;18.30;91.10
49549;DHT22;35450;44.518;7.466;2024-03-22T16:37:27;18.20;90.90
49549;DHT22;35450;44.518;7.466;2024-03-22T16:40:31;18.00;91.20
49549;DHT22;35450;44.518;7.466;2024-03-22T16:43:35;17.90;91.50
49549;DHT22;35450;44.518;7.466;2024-03-22T16:46:42;17.70;91.10
49549;DHT22;35450;44.518;7.466;2024-03-22T16:49:46;17.60;91.40
49549;DHT22;35450;44.518;7.466;2024-03-22T16:52:50;17.40;91.80
49549;DHT22;35450;44.518;7.466;2024-03-22T16:55:54;17.40;92.20
49549;DHT22;35450;44.518;7.466;2024-03-22T16:58:58;17.20;92.60
49549;DHT22;35450;44.518;7.466;2024-03-22T17:02:02;17.00;92.80
49549;DHT22;35450;44.518;7.466;2024-03-22T17:05:06;16.80;93.00
49549;DHT22;35450;44.518;7.466;2024-03-22T17:08:12;16.90;93.00
49549;DHT22;35450;44.518;7.466;2024-03-22T17:11:17;16.90;92.90
49549;DHT22;35450;44.518;7.466;2024-03-22T17:14:21;16.90;93.00
49549;DHT22;35450;44.518;7.466;2024-03-22T17:17:25;16.80;93.10
49549;DHT22;35450;44.518;7.466;2024-03-22T17:20:29;16.80;93.60
49549;DHT22;35450;44.518;7.466;2024-03-22T17:23:34;16.70;93.70
49549;DHT22;35450;44.518;7.466;2024-03-22T17:26:38;16.70;93.60
49549;DHT22;35450;44.518;7.466;2024-03-22T17:29:45;16.60;93.60
49549;DHT22;35450;44.518;7.466;2024-03-22T17:32:49;16.50;93.50
49549;DHT22;35450;44.518;7.466;2024-03-22T17:35:53;16.40;93.40
49549;DHT22;35450;44.518;7.466;2024-03-22T17:38:57;16.40;93.40
49549;DHT22;35450;44.518;7.466;2024-03-22T17:42:01;16.30;93.50
49549;DHT22;35450;44.518;7.466;2024-03-22T17:45:06;16.20;93.40
49549;DHT22;35450;44.518;7.466;2024-03-22T17:48:10;16.10;93.50
49549;DHT22;35450;44.518;7.466;2024-03-22T17:51:15;16.00;93.70
49549;DHT22;35450;44.518;7.466;2024-03-22T17:54:18;15.80;93.60
49549;DHT22;35450;44.518;7.466;2024-03-22T17:57:22;15.80;93.60
49549;DHT22;35450;44.518;7.466;2024-03-22T18:00:27;15.70;93.50
49549;DHT22;35450;44.518;7.466;2024-03-22T18:03:31;15.60;93.70
49549;DHT22;35450;44.518;7.466;2024-03-22T18:06:35;15.40;93.80
49549;DHT22;35450;44.518;7.466;2024-03-22T18:09:39;15.30;93.90
49549;DHT22;35450;44.518;7.466;2024-03-22T18:12:44;15.30;93.60
49549;DHT22;35450;44.518;7.466;2024-03-22T18:15:47;15.30;93.30
49549;DHT22;35450;44.518;7.466;2024-03-22T18:18:51;15.30;93.30
49549;DHT22;35450;44.518;7.466;2024-03-22T18:21:57;15.20;93.40
49549;DHT22;35450;44.518;7.466;2024-03-22T18:25:01;15.10;93.60
49549;DHT22;35450;44.518;7.466;2024-03-22T18:28:05;15.00;93.70
49549;DHT22;35450;44.518;7.466;2024-03-22T18:31:09;14.90;94.00
49549;DHT22;35450;44.518;7.466;2024-03-22T18:34:14;14.90;94.00
49549;DHT22;35450;44.518;7.466;2024-03-22T18:37:20;14.80;94.00
49549;DHT22;35450;44.518;7.466;2024-03-22T18:40:24;14.70;94.10
